sensor_id;sensor_type;location;lat;lon;timestamp;P1;durP1;ratioP1;P2;durP2;ratioP2
12267;SDS011;6196;48.398;11.736;2024-03-02T00:02:15;20.03;;;17.90;;
12267;SDS011;6196;48.398;11.736;2024-03-02T00:04:44;19.83;;;17.73;;
12267;SDS011;6196;48.398;11.736;2024-03-02T00:07:11;20.20;;;17.00;;
12267;SDS011;6196;48.398;11.736;2024-03-02T00:09:41;19.00;;;17.00;;
12267;SDS011;6196;48.398;11.736;2024-03-02T00:12:10;21.97;;;19.43;;
12267;SDS011;6196;48.398;11.736;2024-03-02T00:14:42;21.70;;;19.00;;
12267;SDS011;6196;48.398;11.736;2024-03-02T00:17:09;21.93;;;18.83;;
12267;SDS011;6196;48.398;11.736;2024-03-02T00:19:51;23.27;;;18.53;;
12267;SDS011;6196;48.398;11.736;2024-03-02T00:22:18;24.33;;;19.90;;
12267;SDS011;6196;48.398;11.736;2024-03-02T00:24:45;23.90;;;20.83;;
12267;SDS011;6196;48.398;11.736;2024-03-02T00:27:12;24.43;;;20.50;;
12267;SDS011;6196;48.398;11.736;2024-03-02T00:29:41;24.73;;;20.40;;
12267;SDS011;6196;48.398;11.736;2024-03-02T00:32:12;23.93;;;20.30;;
12267;SDS011;6196;48.398;11.736;2024-03-02T00:34:40;25.43;;;21.03;;
12267;SDS011;6196;48.398;11.736;2024-03-02T00:37:07;25.63;;;21.53;;
12267;SDS011;6196;48.398;11.736;2024-03-02T00:39:34;23.80;;;20.30;;
12267;SDS011;6196;48.398;11.736;2024-03-02T00:42:02;23.87;;;20.87;;
12267;SDS011;6196;48.398;11.736;2024-03-02T00:44:29;25.67;;;20.97;;
12267;SDS011;6196;48.398;11.736;2024-03-02T00:47:00;26.23;;;20.53;;
12267;SDS011;6196;48.398;11.736;2024-03-02T00:49:27;24.53;;;20.80;;
12267;SDS011;6196;48.398;11.736;2024-03-02T00:51:55;27.50;;;21.73;;
12267;SDS011;6196;48.398;11.736;2024-03-02T00:54:24;26.83;;;21.67;;
12267;SDS011;6196;48.398;11.736;2024-03-02T00:56:53;24.67;;;21.90;;
12267;SDS011;6196;48.398;11.736;2024-03-02T00:59:22;25.37;;;19.80;;
12267;SDS011;6196;48.398;11.736;2024-03-02T01:01:50;24.37;;;20.40;;
12267;SDS011;6196;48.398;11.736;2024-03-02T01:04:17;23.37;;;20.53;;
12267;SDS011;6196;48.398;11.736;2024-03-02T01:06:44;23.27;;;20.10;;
12267;SDS011;6196;48.398;11.736;2024-03-02T01:09:12;25.87;;;21.33;;
12267;SDS011;6196;48.398;11.736;2024-03-02T01:11:39;26.17;;;20.23;;
12267;SDS011;6196;48.398;11.736;2024-03-02T01:14:06;24.67;;;21.63;;
12267;SDS011;6196;48.398;11.736;2024-03-02T01:16:33;22.87;;;20.03;;
12267;SDS011;6196;48.398;11.736;2024-03-02T01:19:00;25.77;;;21.40;;
12267;SDS011;6196;48.398;11.736;2024-03-02T01:21:27;24.87;;;21.73;;
12267;SDS011;6196;48.398;11.736;2024-03-02T01:23:54;23.97;;;21.23;;
12267;SDS011;6196;48.398;11.736;2024-03-02T01:26:21;28.73;;;23.27;;
12267;SDS011;6196;48.398;11.736;2024-03-02T01:28:47;24.83;;;22.10;;
12267;SDS011;6196;48.398;11.736;2024-03-02T01:31:14;27.00;;;22.60;;
12267;SDS011;6196;48.398;11.736;2024-03-02T01:33:41;25.70;;;21.70;;
12267;SDS011;6196;48.398;11.736;2024-03-02T01:36:09;24.17;;;21.17;;
12267;SDS011;6196;48.398;11.736;2024-03-02T01:38:36;25.40;;;21.83;;
12267;SDS011;6196;48.398;11.736;2024-03-02T01:41:03;25.43;;;21.00;;
12267;SDS011;6196;48.398;11.736;2024-03-02T01:43:30;25.13;;;20.63;;
12267;SDS011;6196;48.398;11.736;2024-03-02T01:45:56;24.40;;;20.87;;
12267;SDS011;6196;48.398;11.736;2024-03-02T01:48:24;24.37;;;20.77;;
12267;SDS011;6196;48.398;11.736;2024-03-02T01:50:51;23.63;;;20.07;;
12267;SDS011;6196;48.398;11.736;2024-03-02T01:53:18;23.53;;;20.80;;
12267;SDS011;6196;48.398;11.736;2024-03-02T01:55:45;22.50;;;19.93;;
12267;SDS011;6196;48.398;11.736;2024-03-02T01:58:12;22.57;;;20.10;;
12267;SDS011;6196;48.398;11.736;2024-03-02T02:00:40;23.77;;;21.07;;
12267;SDS011;6196;48.398;11.736;2024-03-02T02:03:07;23.87;;;20.00;;
12267;SDS011;6196;48.398;11.736;2024-03-02T02:05:34;21.70;;;19.33;;
12267;SDS011;6196;48.398;11.736;2024-03-02T02:08:01;21.27;;;18.97;;
12267;SDS011;6196;48.398;11.736;2024-03-02T02:10:28;23.50;;;20.50;;
12267;SDS011;6196;48.398;11.736;2024-03-02T02:12:55;24.00;;;19.67;;
12267;SDS011;6196;48.398;11.736;2024-03-02T02:15:26;26.00;;;20.83;;
12267;SDS011;6196;48.398;11.736;2024-03-02T02:17:57;23.33;;;20.20;;
12267;SDS011;6196;48.398;11.736;2024-03-02T02:20:26;24.07;;;21.10;;
12267;SDS011;6196;48.398;11.736;2024-03-02T02:23:02;23.90;;;20.93;;
12267;SDS011;6196;48.398;11.736;2024-03-02T02:25:32;22.77;;;19.80;;
12267;SDS011;6196;48.398;11.736;2024-03-02T02:27:59;23.90;;;21.13;;
12267;SDS011;6196;48.398;11.736;2024-03-02T02:30:26;25.23;;;21.20;;
12267;SDS011;6196;48.398;11.736;2024-03-02T02:32:56;24.13;;;20.60;;
12267;SDS011;6196;48.398;11.736;2024-03-02T02:35:24;25.17;;;20.73;;
12267;SDS011;6196;48.398;11.736;2024-03-02T02:37:51;24.43;;;21.20;;
12267;SDS011;6196;48.398;11.736;2024-03-02T02:40:20;23.00;;;20.07;;
12267;SDS011;6196;48.398;11.736;2024-03-02T02:42:48;24.67;;;20.60;;
12267;SDS011;6196;48.398;11.736;2024-03-02T02:45:15;23.50;;;20.23;;
12267;SDS011;6196;48.398;11.736;2024-03-02T02:47:42;23.13;;;19.30;;
12267;SDS011;6196;48.398;11.736;2024-03-02T02:50:11;21.10;;;18.77;;
12267;SDS011;6196;48.398;11.736;2024-03-02T02:52:39;22.47;;;18.60;;
12267;SDS011;6196;48.398;11.736;2024-03-02T02:55:08;23.53;;;19.03;;
12267;SDS011;6196;48.398;11.736;2024-03-02T02:57:39;19.53;;;17.43;;
12267;SDS011;6196;48.398;11.736;2024-03-02T03:00:09;21.07;;;18.07;;
12267;SDS011;6196;48.398;11.736;2024-03-02T03:02:43;21.87;;;17.90;;
12267;SDS011;6196;48.398;11.736;2024-03-02T03:05:14;22.00;;;18.03;;
12267;SDS011;6196;48.398;11.736;2024-03-02T03:07:41;21.47;;;18.10;;
12267;SDS011;6196;48.398;11.736;2024-03-02T03:10:10;21.63;;;18.87;;
12267;SDS011;6196;48.398;11.736;2024-03-02T03:12:37;21.37;;;18.03;;
12267;SDS011;6196;48.398;11.736;2024-03-02T03:15:05;22.90;;;18.13;;
12267;SDS011;6196;48.398;11.736;2024-03-02T03:17:33;21.27;;;18.13;;
12267;SDS011;6196;48.398;11.736;2024-03-02T03:20:01;20.87;;;17.70;;
12267;SDS011;6196;48.398;11.736;2024-03-02T03:22:30;22.03;;;17.43;;
12267;SDS011;6196;48.398;11.736;2024-03-02T03:24:58;19.90;;;16.70;;
12267;SDS011;6196;48.398;11.736;2024-03-02T03:27:26;23.40;;;18.33;;
12267;SDS011;6196;48.398;11.736;2024-03-02T03:29:53;22.43;;;18.50;;
12267;SDS011;6196;48.398;11.736;2024-03-02T03:32:21;22.10;;;17.90;;
12267;SDS011;6196;48.398;11.736;2024-03-02T03:34:48;18.90;;;16.70;;
12267;SDS011;6196;48.398;11.736;2024-03-02T03:37:15;21.13;;;17.40;;
12267;SDS011;6196;48.398;11.736;2024-03-02T03:39:42;24.07;;;19.10;;
12267;SDS011;6196;48.398;11.736;2024-03-02T03:42:09;21.83;;;18.30;;
12267;SDS011;6196;48.398;11.736;2024-03-02T03:44:36;22.57;;;18.40;;
12267;SDS011;6196;48.398;11.736;2024-03-02T03:47:03;20.33;;;17.43;;
12267;SDS011;6196;48.398;11.736;2024-03-02T03:49:30;20.73;;;17.70;;
12267;SDS011;6196;48.398;11.736;2024-03-02T03:51:57;22.43;;;18.17;;
12267;SDS011;6196;48.398;11.736;2024-03-02T03:54:24;24.03;;;19.20;;
12267;SDS011;6196;48.398;11.736;2024-03-02T03:56:50;21.77;;;18.27;;
12267;SDS011;6196;48.398;11.736;2024-03-02T03:59:18;20.30;;;18.07;;
12267;SDS011;6196;48.398;11.736;2024-03-02T04:01:44;22.27;;;19.57;;
12267;SDS011;6196;48.398;11.736;2024-03-02T04:04:11;21.90;;;18.17;;
12267;SDS011;6196;48.398;11.736;2024-03-02T04:06:38;23.53;;;20.13;;
12267;SDS011;6196;48.398;11.736;2024-03-02T04:09:05;26.57;;;20.60;;
12267;SDS011;6196;48.398;11.736;2024-03-02T04:11:33;23.37;;;19.97;;
12267;SDS011;6196;48.398;11.736;2024-03-02T04:14:00;24.90;;;21.37;;
12267;SDS011;6196;48.398;11.736;2024-03-02T04:16:27;23.73;;;19.83;;
12267;SDS011;6196;48.398;11.736;2024-03-02T04:18:55;22.37;;;19.17;;
12267;SDS011;6196;48.398;11.736;2024-03-02T04:21:22;25.33;;;20.13;;
12267;SDS011;6196;48.398;11.736;2024-03-02T04:23:49;22.10;;;18.33;;
12267;SDS011;6196;48.398;11.736;2024-03-02T04:26:15;25.03;;;19.60;;
12267;SDS011;6196;48.398;11.736;2024-03-02T04:28:48;24.43;;;20.27;;
12267;SDS011;6196;48.398;11.736;2024-03-02T04:31:15;25.33;;;20.80;;
12267;SDS011;6196;48.398;11.736;2024-03-02T04:33:43;22.53;;;19.60;;
12267;SDS011;6196;48.398;11.736;2024-03-02T04:36:10;23.70;;;19.80;;
12267;SDS011;6196;48.398;11.736;2024-03-02T04:38:37;22.40;;;19.07;;
12267;SDS011;6196;48.398;11.736;2024-03-02T04:41:05;25.10;;;18.97;;
12267;SDS011;6196;48.398;11.736;2024-03-02T04:43:32;23.20;;;19.10;;
12267;SDS011;6196;48.398;11.736;2024-03-02T04:46:00;23.07;;;19.23;;
12267;SDS011;6196;48.398;11.736;2024-03-02T04:48:28;23.70;;;19.50;;
12267;SDS011;6196;48.398;11.736;2024-03-02T04:50:55;21.03;;;18.00;;
12267;SDS011;6196;48.398;11.736;2024-03-02T04:53:22;22.17;;;18.73;;
12267;SDS011;6196;48.398;11.736;2024-03-02T04:55:49;19.93;;;17.17;;
12267;SDS011;6196;48.398;11.736;2024-03-02T04:58:38;24.67;;;18.40;;
12267;SDS011;6196;48.398;11.736;2024-03-02T05:01:05;21.83;;;18.07;;
12267;SDS011;6196;48.398;11.736;2024-03-02T05:03:32;21.13;;;17.57;;
12267;SDS011;6196;48.398;11.736;2024-03-02T05:06:01;22.70;;;18.87;;
12267;SDS011;6196;48.398;11.736;2024-03-02T05:08:28;22.90;;;18.27;;
12267;SDS011;6196;48.398;11.736;2024-03-02T05:10:55;20.93;;;17.37;;
12267;SDS011;6196;48.398;11.736;2024-03-02T05:13:42;23.67;;;17.60;;
12267;SDS011;6196;48.398;11.736;2024-03-02T05:16:08;21.07;;;17.67;;
12267;SDS011;6196;48.398;11.736;2024-03-02T05:18:37;20.70;;;17.53;;
12267;SDS011;6196;48.398;11.736;2024-03-02T05:21:05;23.00;;;18.17;;
12267;SDS011;6196;48.398;11.736;2024-03-02T05:23:32;23.47;;;17.53;;
12267;SDS011;6196;48.398;11.736;2024-03-02T05:25:59;20.90;;;17.40;;
12267;SDS011;6196;48.398;11.736;2024-03-02T05:28:26;20.73;;;17.23;;
12267;SDS011;6196;48.398;11.736;2024-03-02T05:30:53;22.27;;;18.07;;
12267;SDS011;6196;48.398;11.736;2024-03-02T05:33:20;21.87;;;17.67;;
12267;SDS011;6196;48.398;11.736;2024-03-02T05:35:48;23.47;;;19.80;;
12267;SDS011;6196;48.398;11.736;2024-03-02T05:38:18;23.90;;;18.53;;
12267;SDS011;6196;48.398;11.736;2024-03-02T05:40:45;23.97;;;18.30;;
12267;SDS011;6196;48.398;11.736;2024-03-02T05:43:12;22.63;;;18.97;;
12267;SDS011;6196;48.398;11.736;2024-03-02T05:45:39;24.43;;;18.93;;
12267;SDS011;6196;48.398;11.736;2024-03-02T05:48:07;24.87;;;19.50;;
12267;SDS011;6196;48.398;11.736;2024-03-02T05:50:34;22.63;;;18.87;;
12267;SDS011;6196;48.398;11.736;2024-03-02T05:53:01;23.77;;;18.97;;
12267;SDS011;6196;48.398;11.736;2024-03-02T05:55:28;24.13;;;18.87;;
12267;SDS011;6196;48.398;11.736;2024-03-02T05:57:55;21.50;;;18.50;;
12267;SDS011;6196;48.398;11.736;2024-03-02T06:00:38;23.80;;;17.87;;
12267;SDS011;6196;48.398;11.736;2024-03-02T06:03:05;22.60;;;18.47;;
12267;SDS011;6196;48.398;11.736;2024-03-02T06:05:34;22.50;;;19.67;;
12267;SDS011;6196;48.398;11.736;2024-03-02T06:08:01;24.57;;;19.23;;
12267;SDS011;6196;48.398;11.736;2024-03-02T06:10:27;22.43;;;18.47;;
12267;SDS011;6196;48.398;11.736;2024-03-02T06:12:54;23.03;;;19.70;;
12267;SDS011;6196;48.398;11.736;2024-03-02T06:15:22;22.57;;;18.40;;
12267;SDS011;6196;48.398;11.736;2024-03-02T06:17:49;23.63;;;19.37;;
12267;SDS011;6196;48.398;11.736;2024-03-02T06:20:15;23.30;;;19.27;;
12267;SDS011;6196;48.398;11.736;2024-03-02T06:22:42;22.73;;;18.63;;
12267;SDS011;6196;48.398;11.736;2024-03-02T06:25:09;23.07;;;19.53;;
12267;SDS011;6196;48.398;11.736;2024-03-02T06:27:36;23.00;;;19.37;;
12267;SDS011;6196;48.398;11.736;2024-03-02T06:30:03;23.30;;;19.67;;
12267;SDS011;6196;48.398;11.736;2024-03-02T06:32:31;22.07;;;18.43;;
12267;SDS011;6196;48.398;11.736;2024-03-02T06:34:58;22.50;;;18.00;;
12267;SDS011;6196;48.398;11.736;2024-03-02T06:37:26;25.03;;;19.43;;
12267;SDS011;6196;48.398;11.736;2024-03-02T06:39:52;25.10;;;19.00;;
12267;SDS011;6196;48.398;11.736;2024-03-02T06:42:19;23.70;;;19.70;;
12267;SDS011;6196;48.398;11.736;2024-03-02T06:44:46;23.03;;;19.53;;
12267;SDS011;6196;48.398;11.736;2024-03-02T06:47:13;22.53;;;18.47;;
12267;SDS011;6196;48.398;11.736;2024-03-02T06:49:42;23.13;;;19.20;;
12267;SDS011;6196;48.398;11.736;2024-03-02T06:52:09;22.73;;;19.10;;
12267;SDS011;6196;48.398;11.736;2024-03-02T06:54:36;24.97;;;21.07;;
12267;SDS011;6196;48.398;11.736;2024-03-02T06:57:03;23.90;;;20.20;;
12267;SDS011;6196;48.398;11.736;2024-03-02T06:59:30;25.43;;;19.80;;
12267;SDS011;6196;48.398;11.736;2024-03-02T07:01:57;22.70;;;18.63;;
12267;SDS011;6196;48.398;11.736;2024-03-02T07:04:24;24.57;;;18.57;;
12267;SDS011;6196;48.398;11.736;2024-03-02T07:06:51;23.50;;;19.10;;
12267;SDS011;6196;48.398;11.736;2024-03-02T07:09:18;23.93;;;19.80;;
12267;SDS011;6196;48.398;11.736;2024-03-02T07:11:48;23.90;;;20.00;;
12267;SDS011;6196;48.398;11.736;2024-03-02T07:14:17;23.43;;;19.00;;
12267;SDS011;6196;48.398;11.736;2024-03-02T07:16:44;23.03;;;19.30;;
12267;SDS011;6196;48.398;11.736;2024-03-02T07:19:11;22.77;;;18.93;;
12267;SDS011;6196;48.398;11.736;2024-03-02T07:21:38;24.53;;;19.83;;
12267;SDS011;6196;48.398;11.736;2024-03-02T07:24:05;22.67;;;19.17;;
12267;SDS011;6196;48.398;11.736;2024-03-02T07:26:35;24.47;;;19.43;;
12267;SDS011;6196;48.398;11.736;2024-03-02T07:29:05;24.30;;;20.33;;
12267;SDS011;6196;48.398;11.736;2024-03-02T07:31:32;26.97;;;21.53;;
12267;SDS011;6196;48.398;11.736;2024-03-02T07:33:59;25.50;;;20.87;;
12267;SDS011;6196;48.398;11.736;2024-03-02T07:36:26;27.23;;;21.27;;
12267;SDS011;6196;48.398;11.736;2024-03-02T07:38:53;27.47;;;20.67;;
12267;SDS011;6196;48.398;11.736;2024-03-02T07:41:20;26.33;;;19.77;;
12267;SDS011;6196;48.398;11.736;2024-03-02T07:43:47;23.60;;;19.83;;
12267;SDS011;6196;48.398;11.736;2024-03-02T07:46:14;22.37;;;19.33;;
12267;SDS011;6196;48.398;11.736;2024-03-02T07:48:42;23.60;;;19.23;;
12267;SDS011;6196;48.398;11.736;2024-03-02T07:51:09;24.67;;;18.90;;
12267;SDS011;6196;48.398;11.736;2024-03-02T07:53:36;22.27;;;18.50;;
12267;SDS011;6196;48.398;11.736;2024-03-02T07:56:03;22.23;;;19.40;;
12267;SDS011;6196;48.398;11.736;2024-03-02T07:58:30;22.53;;;19.70;;
12267;SDS011;6196;48.398;11.736;2024-03-02T08:00:57;24.67;;;19.80;;
12267;SDS011;6196;48.398;11.736;2024-03-02T08:03:27;22.87;;;20.07;;
12267;SDS011;6196;48.398;11.736;2024-03-02T08:05:54;23.90;;;20.33;;
12267;SDS011;6196;48.398;11.736;2024-03-02T08:08:21;26.97;;;22.20;;
12267;SDS011;6196;48.398;11.736;2024-03-02T08:10:48;26.10;;;21.40;;
12267;SDS011;6196;48.398;11.736;2024-03-02T08:13:15;25.03;;;21.33;;
12267;SDS011;6196;48.398;11.736;2024-03-02T08:15:42;26.73;;;20.97;;
12267;SDS011;6196;48.398;11.736;2024-03-02T08:18:09;28.67;;;22.40;;
12267;SDS011;6196;48.398;11.736;2024-03-02T08:20:36;28.53;;;21.80;;
12267;SDS011;6196;48.398;11.736;2024-03-02T08:23:03;28.07;;;21.73;;
12267;SDS011;6196;48.398;11.736;2024-03-02T08:25:31;27.37;;;22.97;;
12267;SDS011;6196;48.398;11.736;2024-03-02T08:27:58;27.53;;;23.63;;
12267;SDS011;6196;48.398;11.736;2024-03-02T08:30:25;29.67;;;24.07;;
12267;SDS011;6196;48.398;11.736;2024-03-02T08:32:52;28.13;;;22.43;;
12267;SDS011;6196;48.398;11.736;2024-03-02T08:35:19;29.97;;;23.33;;
12267;SDS011;6196;48.398;11.736;2024-03-02T08:37:46;27.70;;;23.37;;
12267;SDS011;6196;48.398;11.736;2024-03-02T08:40:13;29.63;;;23.10;;
12267;SDS011;6196;48.398;11.736;2024-03-02T08:42:44;25.93;;;22.20;;
12267;SDS011;6196;48.398;11.736;2024-03-02T08:45:12;26.43;;;20.60;;
12267;SDS011;6196;48.398;11.736;2024-03-02T08:47:39;26.90;;;21.53;;
12267;SDS011;6196;48.398;11.736;2024-03-02T08:50:06;25.17;;;20.30;;
12267;SDS011;6196;48.398;11.736;2024-03-02T08:52:34;25.23;;;20.23;;
12267;SDS011;6196;48.398;11.736;2024-03-02T08:55:01;27.30;;;21.87;;
12267;SDS011;6196;48.398;11.736;2024-03-02T08:57:29;25.60;;;20.70;;
12267;SDS011;6196;48.398;11.736;2024-03-02T08:59:56;28.47;;;22.17;;
12267;SDS011;6196;48.398;11.736;2024-03-02T09:02:23;29.13;;;22.37;;
12267;SDS011;6196;48.398;11.736;2024-03-02T09:04:51;30.40;;;24.70;;
12267;SDS011;6196;48.398;11.736;2024-03-02T09:07:18;28.93;;;21.53;;
12267;SDS011;6196;48.398;11.736;2024-03-02T09:09:45;25.00;;;19.87;;
12267;SDS011;6196;48.398;11.736;2024-03-02T09:12:12;26.23;;;20.40;;
12267;SDS011;6196;48.398;11.736;2024-03-02T09:14:40;26.70;;;20.90;;
12267;SDS011;6196;48.398;11.736;2024-03-02T09:17:07;27.37;;;20.87;;
12267;SDS011;6196;48.398;11.736;2024-03-02T09:19:37;27.50;;;20.97;;
12267;SDS011;6196;48.398;11.736;2024-03-02T09:22:04;26.00;;;21.27;;
12267;SDS011;6196;48.398;11.736;2024-03-02T09:24:32;26.43;;;21.43;;
12267;SDS011;6196;48.398;11.736;2024-03-02T09:27:02;28.00;;;22.57;;
12267;SDS011;6196;48.398;11.736;2024-03-02T09:29:29;25.20;;;20.63;;
12267;SDS011;6196;48.398;11.736;2024-03-02T09:31:56;30.73;;;22.23;;
12267;SDS011;6196;48.398;11.736;2024-03-02T09:34:22;30.03;;;22.63;;
12267;SDS011;6196;48.398;11.736;2024-03-02T09:36:50;29.00;;;22.33;;
12267;SDS011;6196;48.398;11.736;2024-03-02T09:39:18;29.37;;;22.67;;
12267;SDS011;6196;48.398;11.736;2024-03-02T09:41:45;30.60;;;23.00;;
12267;SDS011;6196;48.398;11.736;2024-03-02T09:44:14;30.87;;;22.83;;
12267;SDS011;6196;48.398;11.736;2024-03-02T09:46:41;28.10;;;22.83;;
12267;SDS011;6196;48.398;11.736;2024-03-02T09:49:10;29.67;;;23.93;;
12267;SDS011;6196;48.398;11.736;2024-03-02T09:51:37;30.53;;;24.33;;
12267;SDS011;6196;48.398;11.736;2024-03-02T09:54:05;32.63;;;24.73;;
12267;SDS011;6196;48.398;11.736;2024-03-02T09:56:47;29.20;;;23.43;;
12267;SDS011;6196;48.398;11.736;2024-03-02T09:59:14;31.60;;;24.20;;
12267;SDS011;6196;48.398;11.736;2024-03-02T10:02:00;31.07;;;24.30;;
12267;SDS011;6196;48.398;11.736;2024-03-02T10:04:29;30.00;;;23.50;;
12267;SDS011;6196;48.398;11.736;2024-03-02T10:07:13;27.17;;;23.87;;
12267;SDS011;6196;48.398;11.736;2024-03-02T10:09:45;31.83;;;25.60;;
12267;SDS011;6196;48.398;11.736;2024-03-02T10:12:15;33.33;;;25.93;;
12267;SDS011;6196;48.398;11.736;2024-03-02T10:14:43;31.47;;;25.60;;
12267;SDS011;6196;48.398;11.736;2024-03-02T10:17:11;31.53;;;25.43;;
12267;SDS011;6196;48.398;11.736;2024-03-02T10:19:40;32.37;;;25.83;;
12267;SDS011;6196;48.398;11.736;2024-03-02T10:22:08;31.93;;;26.73;;
12267;SDS011;6196;48.398;11.736;2024-03-02T10:24:40;35.80;;;27.17;;
12267;SDS011;6196;48.398;11.736;2024-03-02T10:27:17;33.37;;;27.47;;
12267;SDS011;6196;48.398;11.736;2024-03-02T10:29:51;35.17;;;26.67;;
12267;SDS011;6196;48.398;11.736;2024-03-02T10:32:18;35.83;;;27.73;;
12267;SDS011;6196;48.398;11.736;2024-03-02T10:34:49;35.43;;;28.13;;
12267;SDS011;6196;48.398;11.736;2024-03-02T10:37:16;33.20;;;26.73;;
12267;SDS011;6196;48.398;11.736;2024-03-02T10:39:45;35.57;;;27.77;;
12267;SDS011;6196;48.398;11.736;2024-03-02T10:42:13;35.37;;;28.13;;
12267;SDS011;6196;48.398;11.736;2024-03-02T10:44:41;34.67;;;27.10;;
12267;SDS011;6196;48.398;11.736;2024-03-02T10:47:09;31.60;;;26.47;;
12267;SDS011;6196;48.398;11.736;2024-03-02T10:49:40;32.23;;;26.37;;
12267;SDS011;6196;48.398;11.736;2024-03-02T10:52:09;33.40;;;27.23;;
12267;SDS011;6196;48.398;11.736;2024-03-02T10:54:37;35.37;;;26.73;;
12267;SDS011;6196;48.398;11.736;2024-03-02T10:57:07;33.53;;;24.33;;
12267;SDS011;6196;48.398;11.736;2024-03-02T10:59:37;33.20;;;26.23;;
12267;SDS011;6196;48.398;11.736;2024-03-02T11:02:16;32.30;;;25.07;;
12267;SDS011;6196;48.398;11.736;2024-03-02T11:04:46;31.63;;;24.27;;
12267;SDS011;6196;48.398;11.736;2024-03-02T11:07:15;34.80;;;25.07;;
12267;SDS011;6196;48.398;11.736;2024-03-02T11:09:54;31.90;;;25.37;;
12267;SDS011;6196;48.398;11.736;2024-03-02T11:12:29;31.10;;;25.80;;
12267;SDS011;6196;48.398;11.736;2024-03-02T11:15:04;30.97;;;22.70;;
12267;SDS011;6196;48.398;11.736;2024-03-02T11:17:36;28.53;;;22.43;;
12267;SDS011;6196;48.398;11.736;2024-03-02T11:20:06;30.33;;;23.37;;
12267;SDS011;6196;48.398;11.736;2024-03-02T11:22:35;31.00;;;23.63;;
12267;SDS011;6196;48.398;11.736;2024-03-02T11:25:03;27.83;;;23.03;;
12267;SDS011;6196;48.398;11.736;2024-03-02T11:33:02;23.60;;;19.50;;
12267;SDS011;6196;48.398;11.736;2024-03-02T11:35:38;27.63;;;20.70;;
12267;SDS011;6196;48.398;11.736;2024-03-02T11:38:15;24.50;;;20.77;;
12267;SDS011;6196;48.398;11.736;2024-03-02T11:40:44;23.63;;;19.83;;
12267;SDS011;6196;48.398;11.736;2024-03-02T11:43:11;23.77;;;19.87;;
12267;SDS011;6196;48.398;11.736;2024-03-02T11:45:38;22.67;;;18.33;;
12267;SDS011;6196;48.398;11.736;2024-03-02T11:48:12;23.50;;;19.00;;
12267;SDS011;6196;48.398;11.736;2024-03-02T11:50:42;20.80;;;18.53;;
12267;SDS011;6196;48.398;11.736;2024-03-02T11:53:13;24.17;;;19.60;;
12267;SDS011;6196;48.398;11.736;2024-03-02T11:55:41;23.80;;;18.50;;
12267;SDS011;6196;48.398;11.736;2024-03-02T11:58:13;21.73;;;18.17;;
12267;SDS011;6196;48.398;11.736;2024-03-02T12:00:44;20.83;;;17.67;;
12267;SDS011;6196;48.398;11.736;2024-03-02T12:03:12;21.43;;;17.20;;
12267;SDS011;6196;48.398;11.736;2024-03-02T12:05:40;18.43;;;16.00;;
12267;SDS011;6196;48.398;11.736;2024-03-02T12:08:08;20.30;;;16.60;;
12267;SDS011;6196;48.398;11.736;2024-03-02T12:10:36;19.17;;;15.67;;
12267;SDS011;6196;48.398;11.736;2024-03-02T12:13:04;19.40;;;16.13;;
12267;SDS011;6196;48.398;11.736;2024-03-02T12:15:34;17.63;;;15.33;;
12267;SDS011;6196;48.398;11.736;2024-03-02T12:18:03;20.73;;;16.20;;
12267;SDS011;6196;48.398;11.736;2024-03-02T12:20:32;17.00;;;14.53;;
12267;SDS011;6196;48.398;11.736;2024-03-02T12:23:00;18.07;;;15.20;;
12267;SDS011;6196;48.398;11.736;2024-03-02T12:25:29;18.50;;;14.90;;
12267;SDS011;6196;48.398;11.736;2024-03-02T12:28:00;18.20;;;16.10;;
12267;SDS011;6196;48.398;11.736;2024-03-02T12:30:29;16.17;;;13.53;;
12267;SDS011;6196;48.398;11.736;2024-03-02T12:32:57;16.83;;;13.90;;
12267;SDS011;6196;48.398;11.736;2024-03-02T12:35:24;16.30;;;13.33;;
12267;SDS011;6196;48.398;11.736;2024-03-02T12:37:52;19.73;;;14.40;;
12267;SDS011;6196;48.398;11.736;2024-03-02T12:40:20;20.70;;;16.13;;
12267;SDS011;6196;48.398;11.736;2024-03-02T12:42:49;18.50;;;16.50;;
12267;SDS011;6196;48.398;11.736;2024-03-02T12:45:17;20.53;;;17.03;;
12267;SDS011;6196;48.398;11.736;2024-03-02T12:47:51;19.87;;;16.33;;
12267;SDS011;6196;48.398;11.736;2024-03-02T12:50:19;19.27;;;15.83;;
12267;SDS011;6196;48.398;11.736;2024-03-02T12:52:53;18.67;;;15.13;;
12267;SDS011;6196;48.398;11.736;2024-03-02T12:55:21;18.50;;;15.43;;
12267;SDS011;6196;48.398;11.736;2024-03-02T12:57:50;17.37;;;15.50;;
12267;SDS011;6196;48.398;11.736;2024-03-02T13:00:18;17.97;;;16.07;;
12267;SDS011;6196;48.398;11.736;2024-03-02T13:02:47;19.67;;;17.57;;
12267;SDS011;6196;48.398;11.736;2024-03-02T13:05:16;17.67;;;14.90;;
12267;SDS011;6196;48.398;11.736;2024-03-02T13:07:44;18.43;;;15.60;;
12267;SDS011;6196;48.398;11.736;2024-03-02T13:10:13;17.80;;;15.57;;
12267;SDS011;6196;48.398;11.736;2024-03-02T13:12:40;19.00;;;16.30;;
12267;SDS011;6196;48.398;11.736;2024-03-02T13:15:08;14.63;;;13.13;;
12267;SDS011;6196;48.398;11.736;2024-03-02T13:17:38;17.70;;;15.50;;
12267;SDS011;6196;48.398;11.736;2024-03-02T13:20:06;17.50;;;15.07;;
12267;SDS011;6196;48.398;11.736;2024-03-02T13:22:37;19.07;;;17.00;;
12267;SDS011;6196;48.398;11.736;2024-03-02T13:25:04;18.70;;;15.70;;
12267;SDS011;6196;48.398;11.736;2024-03-02T13:27:33;19.80;;;17.03;;
12267;SDS011;6196;48.398;11.736;2024-03-02T13:30:01;18.13;;;15.60;;
12267;SDS011;6196;48.398;11.736;2024-03-02T13:32:32;18.43;;;15.60;;
12267;SDS011;6196;48.398;11.736;2024-03-02T13:34:59;18.20;;;15.93;;
12267;SDS011;6196;48.398;11.736;2024-03-02T13:37:26;19.63;;;16.43;;
12267;SDS011;6196;48.398;11.736;2024-03-02T13:39:53;20.73;;;15.83;;
12267;SDS011;6196;48.398;11.736;2024-03-02T13:42:20;18.13;;;15.63;;
12267;SDS011;6196;48.398;11.736;2024-03-02T13:44:47;17.33;;;15.27;;
12267;SDS011;6196;48.398;11.736;2024-03-02T13:47:18;18.13;;;15.43;;
12267;SDS011;6196;48.398;11.736;2024-03-02T13:49:45;19.17;;;15.03;;
12267;SDS011;6196;48.398;11.736;2024-03-02T13:52:13;18.33;;;14.70;;
12267;SDS011;6196;48.398;11.736;2024-03-02T13:54:43;23.20;;;19.37;;
12267;SDS011;6196;48.398;11.736;2024-03-02T13:57:12;17.33;;;15.07;;
12267;SDS011;6196;48.398;11.736;2024-03-02T13:59:40;19.40;;;15.97;;
12267;SDS011;6196;48.398;11.736;2024-03-02T14:02:09;18.83;;;16.83;;
12267;SDS011;6196;48.398;11.736;2024-03-02T14:04:36;20.63;;;17.30;;
12267;SDS011;6196;48.398;11.736;2024-03-02T14:07:04;19.67;;;17.10;;
12267;SDS011;6196;48.398;11.736;2024-03-02T14:09:35;18.13;;;16.10;;
12267;SDS011;6196;48.398;11.736;2024-03-02T14:12:03;21.33;;;17.90;;
12267;SDS011;6196;48.398;11.736;2024-03-02T14:14:32;19.90;;;17.70;;
12267;SDS011;6196;48.398;11.736;2024-03-02T14:16:59;17.90;;;16.00;;
12267;SDS011;6196;48.398;11.736;2024-03-02T14:19:30;19.37;;;16.60;;
12267;SDS011;6196;48.398;11.736;2024-03-02T14:21:57;17.80;;;15.07;;
12267;SDS011;6196;48.398;11.736;2024-03-02T14:24:25;19.00;;;15.77;;
12267;SDS011;6196;48.398;11.736;2024-03-02T14:26:52;17.30;;;15.40;;
12267;SDS011;6196;48.398;11.736;2024-03-02T14:29:28;18.60;;;16.57;;
12267;SDS011;6196;48.398;11.736;2024-03-02T14:31:56;16.47;;;14.77;;
12267;SDS011;6196;48.398;11.736;2024-03-02T14:34:22;16.10;;;14.03;;